sensor_id;sensor_type;location;lat;lon;timestamp;P1;durP1;ratioP1;P2;durP2;ratioP2
57029;SDS011;42920;45.306;20.448;2023-08-06T00:00:04;3.38;;;2.33;;
57029;SDS011;42920;45.306;20.448;2023-08-06T00:02:31;4.88;;;2.78;;
57029;SDS011;42920;45.306;20.448;2023-08-06T00:04:56;3.83;;;3.13;;
57029;SDS011;42920;45.306;20.448;2023-08-06T00:07:22;5.97;;;3.17;;
57029;SDS011;42920;45.306;20.448;2023-08-06T00:09:48;4.78;;;2.50;;
57029;SDS011;42920;45.306;20.448;2023-08-06T00:12:13;5.38;;;2.50;;
57029;SDS011;42920;45.306;20.448;2023-08-06T00:14:39;3.70;;;2.38;;
57029;SDS011;42920;45.306;20.448;2023-08-06T00:17:05;8.30;;;2.65;;
57029;SDS011;42920;45.306;20.448;2023-08-06T00:19:31;4.85;;;2.22;;
57029;SDS011;42920;45.306;20.448;2023-08-06T00:21:57;3.38;;;2.30;;
57029;SDS011;42920;45.306;20.448;2023-08-06T00:24:23;4.78;;;2.70;;
57029;SDS011;42920;45.306;20.448;2023-08-06T00:26:48;3.53;;;2.30;;
57029;SDS011;42920;45.306;20.448;2023-08-06T00:29:14;5.10;;;2.47;;
57029;SDS011;42920;45.306;20.448;2023-08-06T00:31:40;4.00;;;2.83;;
57029;SDS011;42920;45.306;20.448;2023-08-06T00:34:05;5.13;;;2.70;;
57029;SDS011;42920;45.306;20.448;2023-08-06T00:36:31;5.25;;;3.10;;
57029;SDS011;42920;45.306;20.448;2023-08-06T00:38:57;4.90;;;3.05;;
57029;SDS011;42920;45.306;20.448;2023-08-06T00:41:22;6.05;;;3.55;;
57029;SDS011;42920;45.306;20.448;2023-08-06T00:43:48;7.45;;;3.60;;
57029;SDS011;42920;45.306;20.448;2023-08-06T00:46:14;4.88;;;3.15;;
57029;SDS011;42920;45.306;20.448;2023-08-06T00:48:40;4.80;;;3.58;;
57029;SDS011;42920;45.306;20.448;2023-08-06T00:51:07;5.82;;;3.72;;
57029;SDS011;42920;45.306;20.448;2023-08-06T00:53:35;9.20;;;4.20;;
57029;SDS011;42920;45.306;20.448;2023-08-06T00:56:02;7.30;;;3.92;;
57029;SDS011;42920;45.306;20.448;2023-08-06T00:58:28;4.32;;;2.65;;
57029;SDS011;42920;45.306;20.448;2023-08-06T01:00:54;6.53;;;3.47;;
57029;SDS011;42920;45.306;20.448;2023-08-06T01:03:20;6.63;;;3.05;;
57029;SDS011;42920;45.306;20.448;2023-08-06T01:05:46;6.05;;;3.63;;
57029;SDS011;42920;45.306;20.448;2023-08-06T01:08:15;5.30;;;3.03;;
57029;SDS011;42920;45.306;20.448;2023-08-06T01:13:37;6.63;;;3.42;;
57029;SDS011;42920;45.306;20.448;2023-08-06T01:16:08;5.32;;;2.53;;
57029;SDS011;42920;45.306;20.448;2023-08-06T01:18:35;6.13;;;2.78;;
57029;SDS011;42920;45.306;20.448;2023-08-06T01:21:02;4.85;;;3.10;;
57029;SDS011;42920;45.306;20.448;2023-08-06T01:23:28;5.53;;;3.13;;
57029;SDS011;42920;45.306;20.448;2023-08-06T01:28:47;4.75;;;3.17;;
57029;SDS011;42920;45.306;20.448;2023-08-06T01:31:31;5.28;;;2.90;;
57029;SDS011;42920;45.306;20.448;2023-08-06T01:34:00;4.90;;;3.20;;
57029;SDS011;42920;45.306;20.448;2023-08-06T01:36:28;8.30;;;3.08;;
57029;SDS011;42920;45.306;20.448;2023-08-06T01:38:53;6.30;;;3.22;;
57029;SDS011;42920;45.306;20.448;2023-08-06T01:41:20;6.57;;;3.50;;
57029;SDS011;42920;45.306;20.448;2023-08-06T01:43:45;4.93;;;3.40;;
57029;SDS011;42920;45.306;20.448;2023-08-06T01:46:11;5.20;;;3.25;;
57029;SDS011;42920;45.306;20.448;2023-08-06T01:48:37;5.82;;;3.47;;
57029;SDS011;42920;45.306;20.448;2023-08-06T01:51:06;4.72;;;3.40;;
57029;SDS011;42920;45.306;20.448;2023-08-06T01:53:32;4.93;;;3.38;;
57029;SDS011;42920;45.306;20.448;2023-08-06T01:55:58;5.00;;;3.58;;
57029;SDS011;42920;45.306;20.448;2023-08-06T01:58:24;9.48;;;3.53;;
57029;SDS011;42920;45.306;20.448;2023-08-06T02:00:50;6.90;;;3.85;;
57029;SDS011;42920;45.306;20.448;2023-08-06T02:03:16;15.05;;;4.45;;
57029;SDS011;42920;45.306;20.448;2023-08-06T02:05:42;6.15;;;4.03;;
57029;SDS011;42920;45.306;20.448;2023-08-06T02:08:07;5.00;;;3.30;;
57029;SDS011;42920;45.306;20.448;2023-08-06T02:10:33;12.30;;;5.05;;
57029;SDS011;42920;45.306;20.448;2023-08-06T02:12:59;6.97;;;4.45;;
57029;SDS011;42920;45.306;20.448;2023-08-06T02:15:24;8.43;;;4.95;;
57029;SDS011;42920;45.306;20.448;2023-08-06T02:17:50;7.30;;;5.78;;
57029;SDS011;42920;45.306;20.448;2023-08-06T02:20:16;9.15;;;5.60;;
57029;SDS011;42920;45.306;20.448;2023-08-06T02:22:41;9.63;;;5.55;;
57029;SDS011;42920;45.306;20.448;2023-08-06T02:25:07;13.02;;;6.38;;
57029;SDS011;42920;45.306;20.448;2023-08-06T02:27:33;8.60;;;6.40;;
57029;SDS011;42920;45.306;20.448;2023-08-06T02:29:59;8.05;;;6.57;;
57029;SDS011;42920;45.306;20.448;2023-08-06T02:32:25;9.85;;;6.68;;
57029;SDS011;42920;45.306;20.448;2023-08-06T02:34:50;10.95;;;7.13;;
57029;SDS011;42920;45.306;20.448;2023-08-06T02:37:16;11.98;;;7.72;;
57029;SDS011;42920;45.306;20.448;2023-08-06T02:39:42;10.50;;;8.30;;
57029;SDS011;42920;45.306;20.448;2023-08-06T02:42:08;10.43;;;8.70;;
57029;SDS011;42920;45.306;20.448;2023-08-06T02:44:34;10.65;;;8.80;;
57029;SDS011;42920;45.306;20.448;2023-08-06T02:47:00;11.57;;;9.32;;
57029;SDS011;42920;45.306;20.448;2023-08-06T02:49:26;14.63;;;10.20;;
57029;SDS011;42920;45.306;20.448;2023-08-06T02:51:52;13.25;;;10.55;;
57029;SDS011;42920;45.306;20.448;2023-08-06T02:54:18;13.88;;;10.40;;
57029;SDS011;42920;45.306;20.448;2023-08-06T02:56:44;13.45;;;9.60;;
57029;SDS011;42920;45.306;20.448;2023-08-06T02:59:11;12.57;;;9.93;;
57029;SDS011;42920;45.306;20.448;2023-08-06T03:01:38;14.93;;;9.23;;
57029;SDS011;42920;45.306;20.448;2023-08-06T03:04:03;10.35;;;9.18;;
57029;SDS011;42920;45.306;20.448;2023-08-06T03:06:29;15.52;;;10.30;;
57029;SDS011;42920;45.306;20.448;2023-08-06T03:08:55;13.60;;;9.73;;
57029;SDS011;42920;45.306;20.448;2023-08-06T03:11:20;12.45;;;10.05;;
57029;SDS011;42920;45.306;20.448;2023-08-06T03:13:49;13.95;;;9.52;;
57029;SDS011;42920;45.306;20.448;2023-08-06T03:16:15;12.68;;;10.23;;
57029;SDS011;42920;45.306;20.448;2023-08-06T03:18:40;11.60;;;9.75;;
57029;SDS011;42920;45.306;20.448;2023-08-06T03:21:06;11.40;;;9.75;;
57029;SDS011;42920;45.306;20.448;2023-08-06T03:23:32;11.88;;;9.35;;
57029;SDS011;42920;45.306;20.448;2023-08-06T03:26:01;11.18;;;8.63;;
57029;SDS011;42920;45.306;20.448;2023-08-06T03:28:28;11.85;;;8.45;;
57029;SDS011;42920;45.306;20.448;2023-08-06T03:31:00;8.73;;;7.55;;
57029;SDS011;42920;45.306;20.448;2023-08-06T03:33:26;18.77;;;8.73;;
57029;SDS011;42920;45.306;20.448;2023-08-06T03:35:52;10.73;;;8.07;;
57029;SDS011;42920;45.306;20.448;2023-08-06T03:38:18;9.88;;;8.02;;
57029;SDS011;42920;45.306;20.448;2023-08-06T03:40:43;8.75;;;6.82;;
57029;SDS011;42920;45.306;20.448;2023-08-06T03:43:10;7.88;;;6.50;;
57029;SDS011;42920;45.306;20.448;2023-08-06T03:45:36;15.27;;;7.20;;
57029;SDS011;42920;45.306;20.448;2023-08-06T03:48:02;11.15;;;6.72;;
57029;SDS011;42920;45.306;20.448;2023-08-06T03:50:27;8.63;;;6.57;;
57029;SDS011;42920;45.306;20.448;2023-08-06T03:52:53;9.80;;;6.30;;
57029;SDS011;42920;45.306;20.448;2023-08-06T03:55:19;7.80;;;6.35;;
57029;SDS011;42920;45.306;20.448;2023-08-06T03:57:44;9.13;;;6.07;;
57029;SDS011;42920;45.306;20.448;2023-08-06T04:00:10;10.10;;;7.78;;
57029;SDS011;42920;45.306;20.448;2023-08-06T04:02:37;10.82;;;7.38;;
57029;SDS011;42920;45.306;20.448;2023-08-06T04:05:03;10.07;;;7.93;;
57029;SDS011;42920;45.306;20.448;2023-08-06T04:07:29;12.38;;;9.40;;
57029;SDS011;42920;45.306;20.448;2023-08-06T04:09:56;13.80;;;9.93;;
57029;SDS011;42920;45.306;20.448;2023-08-06T04:12:23;16.60;;;11.70;;
57029;SDS011;42920;45.306;20.448;2023-08-06T04:14:49;12.95;;;10.63;;
57029;SDS011;42920;45.306;20.448;2023-08-06T04:17:17;14.15;;;11.93;;
57029;SDS011;42920;45.306;20.448;2023-08-06T04:19:45;18.02;;;12.77;;
57029;SDS011;42920;45.306;20.448;2023-08-06T04:22:12;17.55;;;12.40;;
57029;SDS011;42920;45.306;20.448;2023-08-06T04:24:38;17.90;;;13.75;;
57029;SDS011;42920;45.306;20.448;2023-08-06T04:27:04;15.18;;;12.38;;
57029;SDS011;42920;45.306;20.448;2023-08-06T04:29:30;18.48;;;13.00;;
57029;SDS011;42920;45.306;20.448;2023-08-06T04:31:56;17.52;;;13.75;;
57029;SDS011;42920;45.306;20.448;2023-08-06T04:34:21;17.80;;;13.15;;
57029;SDS011;42920;45.306;20.448;2023-08-06T04:36:47;18.17;;;15.25;;
57029;SDS011;42920;45.306;20.448;2023-08-06T04:39:13;17.83;;;13.80;;
57029;SDS011;42920;45.306;20.448;2023-08-06T04:41:39;23.63;;;15.25;;
57029;SDS011;42920;45.306;20.448;2023-08-06T04:44:04;17.92;;;14.70;;
57029;SDS011;42920;45.306;20.448;2023-08-06T04:46:30;19.75;;;14.48;;
57029;SDS011;42920;45.306;20.448;2023-08-06T04:48:56;17.63;;;14.68;;
57029;SDS011;42920;45.306;20.448;2023-08-06T04:51:21;19.08;;;14.20;;
57029;SDS011;42920;45.306;20.448;2023-08-06T04:53:47;21.35;;;16.13;;
57029;SDS011;42920;45.306;20.448;2023-08-06T04:56:13;20.67;;;15.05;;
57029;SDS011;42920;45.306;20.448;2023-08-06T04:58:39;20.80;;;16.40;;
57029;SDS011;42920;45.306;20.448;2023-08-06T05:01:04;21.17;;;16.27;;
57029;SDS011;42920;45.306;20.448;2023-08-06T05:03:30;20.33;;;15.98;;
57029;SDS011;42920;45.306;20.448;2023-08-06T05:05:56;23.20;;;16.38;;
57029;SDS011;42920;45.306;20.448;2023-08-06T05:08:21;20.23;;;15.00;;
57029;SDS011;42920;45.306;20.448;2023-08-06T05:10:47;22.83;;;15.57;;
57029;SDS011;42920;45.306;20.448;2023-08-06T05:13:13;18.88;;;15.27;;
57029;SDS011;42920;45.306;20.448;2023-08-06T05:15:38;22.48;;;15.55;;
57029;SDS011;42920;45.306;20.448;2023-08-06T05:18:07;19.30;;;15.30;;
57029;SDS011;42920;45.306;20.448;2023-08-06T05:20:35;21.90;;;15.57;;
57029;SDS011;42920;45.306;20.448;2023-08-06T05:23:02;21.75;;;15.35;;
57029;SDS011;42920;45.306;20.448;2023-08-06T05:25:28;21.08;;;16.70;;
57029;SDS011;42920;45.306;20.448;2023-08-06T05:27:54;21.90;;;16.17;;
57029;SDS011;42920;45.306;20.448;2023-08-06T05:30:19;22.33;;;16.48;;
57029;SDS011;42920;45.306;20.448;2023-08-06T05:32:45;22.27;;;16.88;;
57029;SDS011;42920;45.306;20.448;2023-08-06T05:35:11;27.73;;;17.35;;
57029;SDS011;42920;45.306;20.448;2023-08-06T05:37:36;20.40;;;16.85;;
57029;SDS011;42920;45.306;20.448;2023-08-06T05:40:02;22.70;;;16.73;;
57029;SDS011;42920;45.306;20.448;2023-08-06T05:42:29;22.65;;;16.42;;
57029;SDS011;42920;45.306;20.448;2023-08-06T05:44:55;23.48;;;18.20;;
57029;SDS011;42920;45.306;20.448;2023-08-06T05:47:20;24.52;;;18.40;;
57029;SDS011;42920;45.306;20.448;2023-08-06T05:49:46;21.52;;;17.35;;
57029;SDS011;42920;45.306;20.448;2023-08-06T05:52:12;22.98;;;17.05;;
57029;SDS011;42920;45.306;20.448;2023-08-06T05:54:37;21.55;;;16.77;;
57029;SDS011;42920;45.306;20.448;2023-08-06T05:57:03;27.33;;;18.45;;
57029;SDS011;42920;45.306;20.448;2023-08-06T05:59:29;25.33;;;17.27;;
57029;SDS011;42920;45.306;20.448;2023-08-06T06:01:55;24.75;;;19.05;;
57029;SDS011;42920;45.306;20.448;2023-08-06T06:04:21;26.60;;;18.63;;
57029;SDS011;42920;45.306;20.448;2023-08-06T06:06:46;24.92;;;18.52;;
57029;SDS011;42920;45.306;20.448;2023-08-06T06:09:12;24.67;;;19.55;;
57029;SDS011;42920;45.306;20.448;2023-08-06T06:11:38;29.38;;;21.05;;
57029;SDS011;42920;45.306;20.448;2023-08-06T06:14:04;24.67;;;19.70;;
57029;SDS011;42920;45.306;20.448;2023-08-06T06:16:30;26.00;;;19.13;;
57029;SDS011;42920;45.306;20.448;2023-08-06T06:18:55;23.52;;;18.48;;
57029;SDS011;42920;45.306;20.448;2023-08-06T06:21:22;22.40;;;17.30;;
57029;SDS011;42920;45.306;20.448;2023-08-06T06:23:49;23.08;;;17.40;;
57029;SDS011;42920;45.306;20.448;2023-08-06T06:26:16;20.08;;;15.70;;
57029;SDS011;42920;45.306;20.448;2023-08-06T06:28:42;16.70;;;14.18;;
57029;SDS011;42920;45.306;20.448;2023-08-06T06:31:08;18.35;;;15.27;;
57029;SDS011;42920;45.306;20.448;2023-08-06T06:33:34;20.80;;;17.10;;
57029;SDS011;42920;45.306;20.448;2023-08-06T06:36:00;20.23;;;14.85;;
57029;SDS011;42920;45.306;20.448;2023-08-06T06:38:28;16.88;;;13.07;;
57029;SDS011;42920;45.306;20.448;2023-08-06T06:40:57;17.00;;;14.32;;
57029;SDS011;42920;45.306;20.448;2023-08-06T06:43:23;16.80;;;12.48;;
57029;SDS011;42920;45.306;20.448;2023-08-06T06:45:55;17.67;;;13.60;;
57029;SDS011;42920;45.306;20.448;2023-08-06T06:48:27;16.77;;;12.90;;
57029;SDS011;42920;45.306;20.448;2023-08-06T06:50:54;16.63;;;14.10;;
57029;SDS011;42920;45.306;20.448;2023-08-06T06:53:20;15.80;;;13.25;;
57029;SDS011;42920;45.306;20.448;2023-08-06T06:55:52;19.02;;;12.55;;
57029;SDS011;42920;45.306;20.448;2023-08-06T06:58:18;18.92;;;13.93;;
57029;SDS011;42920;45.306;20.448;2023-08-06T07:00:44;14.50;;;12.32;;
57029;SDS011;42920;45.306;20.448;2023-08-06T07:03:11;17.92;;;12.73;;
57029;SDS011;42920;45.306;20.448;2023-08-06T07:05:37;17.27;;;12.68;;
57029;SDS011;42920;45.306;20.448;2023-08-06T07:08:02;16.75;;;12.52;;
57029;SDS011;42920;45.306;20.448;2023-08-06T07:50:06;12.20;;;11.00;;
57029;SDS011;42920;45.306;20.448;2023-08-06T07:52:32;14.55;;;11.50;;
57029;SDS011;42920;45.306;20.448;2023-08-06T07:54:57;14.63;;;11.00;;
57029;SDS011;42920;45.306;20.448;2023-08-06T07:57:23;13.55;;;11.13;;
57029;SDS011;42920;45.306;20.448;2023-08-06T07:59:49;12.65;;;11.35;;
57029;SDS011;42920;45.306;20.448;2023-08-06T08:02:15;15.15;;;11.50;;
57029;SDS011;42920;45.306;20.448;2023-08-06T08:04:41;12.73;;;10.27;;
57029;SDS011;42920;45.306;20.448;2023-08-06T08:07:07;11.43;;;9.75;;
57029;SDS011;42920;45.306;20.448;2023-08-06T08:09:34;12.63;;;11.05;;
57029;SDS011;42920;45.306;20.448;2023-08-06T08:12:00;15.65;;;10.95;;
57029;SDS011;42920;45.306;20.448;2023-08-06T08:14:27;14.75;;;11.68;;
57029;SDS011;42920;45.306;20.448;2023-08-06T08:16:54;13.55;;;10.50;;
57029;SDS011;42920;45.306;20.448;2023-08-06T08:19:20;12.95;;;10.50;;
57029;SDS011;42920;45.306;20.448;2023-08-06T08:21:46;23.73;;;10.77;;
57029;SDS011;42920;45.306;20.448;2023-08-06T08:24:11;10.38;;;9.13;;
57029;SDS011;42920;45.306;20.448;2023-08-06T08:26:37;10.77;;;8.88;;
57029;SDS011;42920;45.306;20.448;2023-08-06T08:29:03;12.20;;;9.20;;
57029;SDS011;42920;45.306;20.448;2023-08-06T08:31:29;11.77;;;9.30;;
57029;SDS011;42920;45.306;20.448;2023-08-06T08:33:54;15.07;;;10.93;;
57029;SDS011;42920;45.306;20.448;2023-08-06T08:36:20;12.98;;;9.80;;
57029;SDS011;42920;45.306;20.448;2023-08-06T08:38:46;13.95;;;9.20;;
57029;SDS011;42920;45.306;20.448;2023-08-06T08:41:12;9.35;;;7.47;;
57029;SDS011;42920;45.306;20.448;2023-08-06T08:43:38;13.20;;;8.23;;
57029;SDS011;42920;45.306;20.448;2023-08-06T08:46:05;12.15;;;8.70;;
57029;SDS011;42920;45.306;20.448;2023-08-06T08:48:33;13.38;;;7.30;;
57029;SDS011;42920;45.306;20.448;2023-08-06T08:50:58;13.52;;;7.30;;
57029;SDS011;42920;45.306;20.448;2023-08-06T08:53:25;9.85;;;6.72;;
57029;SDS011;42920;45.306;20.448;2023-08-06T08:55:52;6.13;;;5.18;;
57029;SDS011;42920;45.306;20.448;2023-08-06T08:58:19;5.13;;;4.43;;
57029;SDS011;42920;45.306;20.448;2023-08-06T09:00:46;6.53;;;4.03;;
57029;SDS011;42920;45.306;20.448;2023-08-06T09:03:13;5.60;;;4.40;;
57029;SDS011;42920;45.306;20.448;2023-08-06T09:05:40;12.85;;;4.25;;
57029;SDS011;42920;45.306;20.448;2023-08-06T09:08:10;6.60;;;3.42;;
57029;SDS011;42920;45.306;20.448;2023-08-06T09:10:39;4.53;;;3.20;;
57029;SDS011;42920;45.306;20.448;2023-08-06T09:13:08;6.03;;;3.13;;
57029;SDS011;42920;45.306;20.448;2023-08-06T09:15:33;4.05;;;3.05;;
57029;SDS011;42920;45.306;20.448;2023-08-06T09:17:59;7.43;;;4.38;;
57029;SDS011;42920;45.306;20.448;2023-08-06T09:20:34;7.30;;;4.85;;
57029;SDS011;42920;45.306;20.448;2023-08-06T09:23:06;7.75;;;3.67;;
57029;SDS011;42920;45.306;20.448;2023-08-06T09:25:33;4.25;;;2.35;;
57029;SDS011;42920;45.306;20.448;2023-08-06T09:28:00;4.05;;;2.45;;
57029;SDS011;42920;45.306;20.448;2023-08-06T09:30:31;6.03;;;2.58;;
57029;SDS011;42920;45.306;20.448;2023-08-06T09:32:58;3.83;;;2.28;;
57029;SDS011;42920;45.306;20.448;2023-08-06T09:35:24;7.18;;;2.28;;
57029;SDS011;42920;45.306;20.448;2023-08-06T09:37:52;3.58;;;2.35;;
57029;SDS011;42920;45.306;20.448;2023-08-06T09:40:36;3.85;;;2.00;;
57029;SDS011;42920;45.306;20.448;2023-08-06T09:43:03;4.43;;;2.33;;
57029;SDS011;42920;45.306;20.448;2023-08-06T09:45:30;3.83;;;1.85;;
57029;SDS011;42920;45.306;20.448;2023-08-06T09:48:08;2.58;;;1.50;;
57029;SDS011;42920;45.306;20.448;2023-08-06T09:50:37;2.78;;;1.60;;
57029;SDS011;42920;45.306;20.448;2023-08-06T09:53:05;2.75;;;1.60;;
57029;SDS011;42920;45.306;20.448;2023-08-06T09:55:32;2.10;;;1.30;;
57029;SDS011;42920;45.306;20.448;2023-08-06T09:57:58;2.20;;;1.40;;
57029;SDS011;42920;45.306;20.448;2023-08-06T10:00:24;2.80;;;1.58;;
57029;SDS011;42920;45.306;20.448;2023-08-06T10:02:51;2.33;;;1.52;;
57029;SDS011;42920;45.306;20.448;2023-08-06T10:05:21;2.67;;;1.98;;
57029;SDS011;42920;45.306;20.448;2023-08-06T10:07:47;4.43;;;2.13;;
57029;SDS011;42920;45.306;20.448;2023-08-06T10:10:15;2.65;;;1.60;;
57029;SDS011;42920;45.306;20.448;2023-08-06T10:12:43;2.78;;;1.60;;
57029;SDS011;42920;45.306;20.448;2023-08-06T10:15:15;4.25;;;1.40;;
57029;SDS011;42920;45.306;20.448;2023-08-06T10:17:46;2.40;;;1.48;;
57029;SDS011;42920;45.306;20.448;2023-08-06T10:20:14;2.05;;;1.20;;
57029;SDS011;42920;45.306;20.448;2023-08-06T10:22:43;1.58;;;1.20;;
57029;SDS011;42920;45.306;20.448;2023-08-06T10:25:10;1.73;;;1.38;;
57029;SDS011;42920;45.306;20.448;2023-08-06T10:27:53;2.08;;;1.35;;
57029;SDS011;42920;45.306;20.448;2023-08-06T10:30:32;2.97;;;1.30;;
57029;SDS011;42920;45.306;20.448;2023-08-06T10:32:58;3.97;;;1.45;;
57029;SDS011;42920;45.306;20.448;2023-08-06T10:38:05;1.92;;;1.63;;
57029;SDS011;42920;45.306;20.448;2023-08-06T10:40:31;3.00;;;1.55;;
57029;SDS011;42920;45.306;20.448;2023-08-06T10:43:01;2.22;;;1.30;;
57029;SDS011;42920;45.306;20.448;2023-08-06T10:45:28;2.45;;;1.40;;
57029;SDS011;42920;45.306;20.448;2023-08-06T10:47:55;1.42;;;1.05;;
57029;SDS011;42920;45.306;20.448;2023-08-06T10:50:22;1.35;;;1.10;;
57029;SDS011;42920;45.306;20.448;2023-08-06T10:52:49;4.85;;;1.45;;
57029;SDS011;42920;45.306;20.448;2023-08-06T10:55:21;4.43;;;1.35;;
57029;SDS011;42920;45.306;20.448;2023-08-06T10:57:51;2.63;;;1.30;;
57029;SDS011;42920;45.306;20.448;2023-08-06T11:00:18;2.47;;;1.23;;
57029;SDS011;42920;45.306;20.448;2023-08-06T11:02:46;1.80;;;1.10;;
57029;SDS011;42920;45.306;20.448;2023-08-06T11:05:13;1.58;;;1.15;;
57029;SDS011;42920;45.306;20.448;2023-08-06T11:07:39;1.27;;;1.08;;
57029;SDS011;42920;45.306;20.448;2023-08-06T11:10:06;2.10;;;1.20;;
57029;SDS011;42920;45.306;20.448;2023-08-06T11:12:33;1.48;;;1.10;;
57029;SDS011;42920;45.306;20.448;2023-08-06T11:14:59;1.58;;;1.20;;
57029;SDS011;42920;45.306;20.448;2023-08-06T11:17:29;1.10;;;0.95;;
57029;SDS011;42920;45.306;20.448;2023-08-06T11:20:00;1.50;;;1.10;;
57029;SDS011;42920;45.306;20.448;2023-08-06T11:22:27;2.13;;;1.20;;
57029;SDS011;42920;45.306;20.448;2023-08-06T11:24:53;3.00;;;1.20;;
57029;SDS011;42920;45.306;20.448;2023-08-06T11:27:19;2.08;;;1.10;;
57029;SDS011;42920;45.306;20.448;2023-08-06T11:29:45;2.67;;;1.00;;
57029;SDS011;42920;45.306;20.448;2023-08-06T11:32:11;2.58;;;1.13;;
57029;SDS011;42920;45.306;20.448;2023-08-06T11:34:37;3.88;;;1.20;;
57029;SDS011;42920;45.306;20.448;2023-08-06T11:37:04;4.50;;;1.20;;
57029;SDS011;42920;45.306;20.448;2023-08-06T11:39:34;5.22;;;1.20;;
57029;SDS011;42920;45.306;20.448;2023-08-06T11:42:02;1.55;;;1.20;;
57029;SDS011;42920;45.306;20.448;2023-08-06T11:44:30;2.05;;;1.17;;
57029;SDS011;42920;45.306;20.448;2023-08-06T11:47:00;1.90;;;1.20;;
57029;SDS011;42920;45.306;20.448;2023-08-06T11:49:47;1.67;;;1.20;;
57029;SDS011;42920;45.306;20.448;2023-08-06T11:54:48;1.42;;;1.00;;
57029;SDS011;42920;45.306;20.448;2023-08-06T11:57:31;1.73;;;1.10;;
57029;SDS011;42920;45.306;20.448;2023-08-06T12:00:06;1.30;;;1.00;;
57029;SDS011;42920;45.306;20.448;2023-08-06T12:02:39;3.05;;;1.42;;
57029;SDS011;42920;45.306;20.448;2023-08-06T12:07:48;1.92;;;1.20;;
57029;SDS011;42920;45.306;20.448;2023-08-06T12:10:16;1.83;;;1.17;;
57029;SDS011;42920;45.306;20.448;2023-08-06T12:12:44;1.85;;;1.02;;
57029;SDS011;42920;45.306;20.448;2023-08-06T12:15:11;1.70;;;1.20;;
57029;SDS011;42920;45.306;20.448;2023-08-06T12:17:37;1.23;;;0.90;;
57029;SDS011;42920;45.306;20.448;2023-08-06T12:20:03;1.52;;;1.13;;
57029;SDS011;42920;45.306;20.448;2023-08-06T12:22:30;1.13;;;0.98;;
57029;SDS011;42920;45.306;20.448;2023-08-06T12:25:00;1.45;;;1.20;;
57029;SDS011;42920;45.306;20.448;2023-08-06T12:27:28;1.67;;;1.20;;
57029;SDS011;42920;45.306;20.448;2023-08-06T12:29:54;1.05;;;0.98;;
57029;SDS011;42920;45.306;20.448;2023-08-06T12:32:19;3.00;;;1.10;;
57029;SDS011;42920;45.306;20.448;2023-08-06T12:34:45;2.83;;;1.38;;
57029;SDS011;42920;45.306;20.448;2023-08-06T12:37:11;1.02;;;0.80;;
57029;SDS011;42920;45.306;20.448;2023-08-06T12:39:36;1.55;;;1.15;;
57029;SDS011;42920;45.306;20.448;2023-08-06T12:42:04;1.15;;;1.00;;
57029;SDS011;42920;45.306;20.448;2023-08-06T12:44:31;1.48;;;1.08;;
57029;SDS011;42920;45.306;20.448;2023-08-06T12:46:57;1.48;;;1.15;;
57029;SDS011;42920;45.306;20.448;2023-08-06T12:49:24;1.73;;;1.42;;
57029;SDS011;42920;45.306;20.448;2023-08-06T12:51:51;2.53;;;1.42;;
57029;SDS011;42920;45.306;20.448;2023-08-06T12:54:17;2.38;;;1.60;;
57029;SDS011;42920;45.306;20.448;2023-08-06T12:56:44;3.15;;;1.50;;
57029;SDS011;42920;45.306;20.448;2023-08-06T12:59:10;1.83;;;1.02;;
57029;SDS011;42920;45.306;20.448;2023-08-06T13:01:39;1.42;;;1.02;;
57029;SDS011;42920;45.306;20.448;2023-08-06T13:04:05;2.97;;;1.10;;
57029;SDS011;42920;45.306;20.448;2023-08-06T13:06:31;1.63;;;1.00;;
57029;SDS011;42920;45.306;20.448;2023-08-06T13:09:02;4.70;;;1.20;;
57029;SDS011;42920;45.306;20.448;2023-08-06T13:11:28;2.13;;;1.10;;
57029;SDS011;42920;45.306;20.448;2023-08-06T13:13:55;4.15;;;1.70;;
57029;SDS011;42920;45.306;20.448;2023-08-06T13:16:21;3.90;;;1.40;;
57029;SDS011;42920;45.306;20.448;2023-08-06T13:18:47;3.92;;;1.83;;
57029;SDS011;42920;45.306;20.448;2023-08-06T13:21:13;2.70;;;1.30;;
57029;SDS011;42920;45.306;20.448;2023-08-06T13:23:38;2.67;;;1.17;;
57029;SDS011;42920;45.306;20.448;2023-08-06T13:26:04;3.35;;;1.35;;
57029;SDS011;42920;45.306;20.448;2023-08-06T13:28:30;2.20;;;1.30;;
57029;SDS011;42920;45.306;20.448;2023-08-06T13:30:55;1.45;;;0.98;;
57029;SDS011;42920;45.306;20.448;2023-08-06T13:33:21;2.58;;;1.20;;
57029;SDS011;42920;45.306;20.448;2023-08-06T13:35:47;0.82;;;0.82;;
57029;SDS011;42920;45.306;20.448;2023-08-06T13:38:12;1.55;;;1.10;;
57029;SDS011;42920;45.306;20.448;2023-08-06T13:40:38;2.25;;;1.20;;
57029;SDS011;42920;45.306;20.448;2023-08-06T13:43:04;1.10;;;0.93;;
57029;SDS011;42920;45.306;20.448;2023-08-06T13:45:30;1.73;;;1.00;;
57029;SDS011;42920;45.306;20.448;2023-08-06T13:47:56;0.85;;;0.80;;
57029;SDS011;42920;45.306;20.448;2023-08-06T13:50:22;3.03;;;1.35;;
57029;SDS011;42920;45.306;20.448;2023-08-06T13:52:50;1.58;;;1.10;;
57029;SDS011;42920;45.306;20.448;2023-08-06T13:55:18;1.90;;;1.00;;
57029;SDS011;42920;45.306;20.448;2023-08-06T13:57:43;3.75;;;1.02;;
57029;SDS011;42920;45.306;20.448;2023-08-06T14:00:09;4.28;;;0.98;;
57029;SDS011;42920;45.306;20.448;2023-08-06T14:02:35;1.25;;;0.82;;
57029;SDS011;42920;45.306;20.448;2023-08-06T14:05:01;2.00;;;0.80;;
57029;SDS011;42920;45.306;20.448;2023-08-06T14:07:27;2.25;;;1.10;;
57029;SDS011;42920;45.306;20.448;2023-08-06T14:09:52;1.98;;;1.00;;
57029;SDS011;42920;45.306;20.448;2023-08-06T14:12:18;1.35;;;0.90;;
57029;SDS011;42920;45.306;20.448;2023-08-06T14:14:44;0.93;;;0.80;;
57029;SDS011;42920;45.306;20.448;2023-08-06T14:17:09;1.30;;;0.70;;
57029;SDS011;42920;45.306;20.448;2023-08-06T14:19:35;1.70;;;1.10;;
57029;SDS011;42920;45.306;20.448;2023-08-06T14:22:01;1.38;;;1.20;;
57029;SDS011;42920;45.306;20.448;2023-08-06T14:24:26;2.92;;;1.02;;
57029;SDS011;42920;45.306;20.448;2023-08-06T14:26:52;1.85;;;1.10;;
57029;SDS011;42920;45.306;20.448;2023-08-06T14:29:18;1.13;;;1.00;;
57029;SDS011;42920;45.306;20.448;2023-08-06T14:31:43;1.55;;;0.88;;
57029;SDS011;42920;45.306;20.448;2023-08-06T14:34:09;1.90;;;1.17;;
57029;SDS011;42920;45.306;20.448;2023-08-06T14:36:35;1.33;;;1.00;;
57029;SDS011;42920;45.306;20.448;2023-08-06T14:39:00;0.73;;;0.73;;
57029;SDS011;42920;45.306;20.448;2023-08-06T14:41:26;1.85;;;1.08;;
57029;SDS011;42920;45.306;20.448;2023-08-06T14:43:52;2.10;;;1.30;;
57029;SDS011;42920;45.306;20.448;2023-08-06T14:46:19;2.47;;;1.60;;
57029;SDS011;42920;45.306;20.448;2023-08-06T14:48:44;1.83;;;1.05;;
57029;SDS011;42920;45.306;20.448;2023-08-06T14:51:10;2.65;;;1.63;;
57029;SDS011;42920;45.306;20.448;2023-08-06T14:53:36;2.15;;;1.25;;
57029;SDS011;42920;45.306;20.448;2023-08-06T14:56:02;3.05;;;0.90;;
57029;SDS011;42920;45.306;20.448;2023-08-06T14:58:27;1.42;;;1.23;;
57029;SDS011;42920;45.306;20.448;2023-08-06T15:00:53;2.05;;;1.30;;
57029;SDS011;42920;45.306;20.448;2023-08-06T15:03:19;3.60;;;1.35;;
57029;SDS011;42920;45.306;20.448;2023-08-06T15:05:47;1.73;;;1.20;;
57029;SDS011;42920;45.306;20.448;2023-08-06T15:08:13;2.15;;;1.23;;
57029;SDS011;42920;45.306;20.448;2023-08-06T15:10:39;2.13;;;1.27;;
57029;SDS011;42920;45.306;20.448;2023-08-06T15:13:05;3.50;;;1.75;;
57029;SDS011;42920;45.306;20.448;2023-08-06T15:15:31;2.55;;;1.40;;